createdAt,value
2022-10-31T00:00:57.268Z,14.9
2022-10-31T00:02:05.541Z,14.9
2022-10-31T00:03:14.094Z,13.8
2022-10-31T00:04:22.429Z,13.8
2022-10-31T00:05:30.799Z,13.8
2022-10-31T00:06:39.322Z,14.5
2022-10-31T00:07:47.659Z,14.5
2022-10-31T00:08:55.988Z,14.5
2022-10-31T00:10:04.544Z,14.1
2022-10-31T00:11:12.872Z,14.1
2022-10-31T00:12:21.207Z,14.1
2022-10-31T00:13:29.756Z,15.5
2022-10-31T00:14:38.101Z,15.5
2022-10-31T00:15:46.441Z,15.5
2022-10-31T00:16:54.976Z,14.8
2022-10-31T00:18:03.323Z,14.8
2022-10-31T00:19:11.666Z,14.8
2022-10-31T00:20:20.196Z,16.200001
2022-10-31T00:21:28.557Z,16.200001
2022-10-31T00:22:36.881Z,16.200001
2022-10-31T00:23:45.444Z,16.1
2022-10-31T00:24:53.795Z,16.1
2022-10-31T00:26:02.133Z,16.1
2022-10-31T00:27:10.679Z,12.4
2022-10-31T00:29:27.343Z,12.4
2022-10-31T00:30:35.880Z,13.3
2022-10-31T00:31:44.202Z,13.3
2022-10-31T00:32:52.545Z,13.3
2022-10-31T00:34:01.095Z,13.4
2022-10-31T00:35:09.449Z,13.4
2022-10-31T00:36:17.779Z,13.4
2022-10-31T00:37:26.377Z,13.9
2022-10-31T00:38:34.682Z,13.9
2022-10-31T00:39:43.033Z,13.9
2022-10-31T00:40:51.585Z,13.7
2022-10-31T00:41:59.934Z,13.7
2022-10-31T00:43:08.310Z,13.7
2022-10-31T00:44:16.845Z,10.8
2022-10-31T00:45:25.196Z,10.8
2022-10-31T00:46:33.521Z,10.8
2022-10-31T00:47:42.081Z,13.8
2022-10-31T00:48:50.419Z,13.8
2022-10-31T00:49:58.745Z,13.8
2022-10-31T00:51:07.412Z,12.7
2022-10-31T00:52:15.640Z,12.7
2022-10-31T00:53:23.995Z,12.7
2022-10-31T00:54:32.518Z,13.1
2022-10-31T00:55:40.858Z,13.1
2022-10-31T00:56:49.195Z,13.1
2022-10-31T00:57:57.973Z,13.8
2022-10-31T00:59:06.086Z,13.8
2022-10-31T01:00:14.441Z,13.8
2022-10-31T01:01:23.087Z,11.7
2022-10-31T01:02:31.514Z,11.7
2022-10-31T01:03:39.683Z,11.7
2022-10-31T01:04:48.229Z,13
2022-10-31T01:05:56.571Z,13
2022-10-31T01:07:04.916Z,13
2022-10-31T01:08:13.545Z,13.2
2022-10-31T01:09:21.915Z,13.2
2022-10-31T01:10:30.237Z,13.2
2022-10-31T01:11:38.801Z,13.6
2022-10-31T01:12:47.147Z,13.6
2022-10-31T01:13:55.470Z,13.6
2022-10-31T01:15:04.011Z,13.9
2022-10-31T01:16:12.355Z,13.9
2022-10-31T01:17:20.680Z,13.9
2022-10-31T01:18:29.228Z,11.7
2022-10-31T01:19:37.558Z,11.7
2022-10-31T01:20:45.912Z,11.7
2022-10-31T01:21:54.475Z,14.6
2022-10-31T01:23:02.812Z,14.6
2022-10-31T01:24:11.134Z,14.6
2022-10-31T01:25:19.697Z,12.8
2022-10-31T01:26:28.013Z,12.8
2022-10-31T01:27:36.335Z,12.8
2022-10-31T01:28:44.870Z,11.4
2022-10-31T01:29:53.215Z,11.4
2022-10-31T01:31:01.570Z,11.4
2022-10-31T01:32:10.101Z,11.8
2022-10-31T01:33:18.462Z,11.8
2022-10-31T01:34:27.628Z,11.8
2022-10-31T01:35:36.190Z,13.5
2022-10-31T01:36:44.529Z,13.5
2022-10-31T01:37:52.862Z,13.5
2022-10-31T01:39:01.413Z,13.6
2022-10-31T01:40:09.748Z,13.6
2022-10-31T01:41:18.119Z,13.6
2022-10-31T01:42:26.644Z,12.1
2022-10-31T01:43:34.973Z,12.1
2022-10-31T01:44:43.310Z,12.1
2022-10-31T01:45:51.870Z,14.7
2022-10-31T01:47:00.211Z,14.7
2022-10-31T01:48:08.549Z,14.7
2022-10-31T01:49:17.094Z,14.4
2022-10-31T01:50:25.437Z,14.4
2022-10-31T01:51:33.783Z,14.4
2022-10-31T01:52:42.345Z,13.4
2022-10-31T01:53:50.667Z,13.4
2022-10-31T01:54:59.011Z,13.4
2022-10-31T01:56:07.565Z,12.2
2022-10-31T01:57:15.928Z,12.2
2022-10-31T01:58:24.263Z,12.2
2022-10-31T01:59:32.804Z,12.9
2022-10-31T02:00:41.164Z,12.9
2022-10-31T02:01:49.548Z,12.9
2022-10-31T02:02:58.350Z,11.4
2022-10-31T02:04:06.352Z,11.4
2022-10-31T02:05:14.686Z,11.4
2022-10-31T02:06:23.234Z,10.3
2022-10-31T02:07:31.574Z,10.3
2022-10-31T02:08:39.910Z,10.3
2022-10-31T02:09:48.461Z,13
2022-10-31T02:10:56.805Z,13
2022-10-31T02:12:05.146Z,13
2022-10-31T02:13:13.762Z,11.5
2022-10-31T02:14:22.021Z,11.5
2022-10-31T02:15:30.352Z,11.5
2022-10-31T02:16:38.900Z,11.1
2022-10-31T02:17:47.232Z,11.1
2022-10-31T02:18:55.571Z,11.1
2022-10-31T02:20:04.113Z,11.2
2022-10-31T02:21:12.476Z,11.2
2022-10-31T02:22:20.827Z,11.2
2022-10-31T02:23:29.361Z,11.2
2022-10-31T02:24:37.692Z,11.2
2022-10-31T02:25:46.033Z,11.2
2022-10-31T02:26:54.574Z,11.5
2022-10-31T02:28:03.336Z,11.5
2022-10-31T02:29:11.274Z,11.5
2022-10-31T02:30:19.816Z,13.4
2022-10-31T02:31:28.140Z,13.4
2022-10-31T02:32:36.477Z,13.4
2022-10-31T02:33:45.016Z,10.3
2022-10-31T02:34:53.354Z,10.3
2022-10-31T02:36:01.693Z,10.3
2022-10-31T02:37:10.236Z,9.1
2022-10-31T02:38:18.582Z,9.1
2022-10-31T02:39:26.918Z,9.1
2022-10-31T02:40:35.468Z,11.2
2022-10-31T02:41:43.818Z,11.2
2022-10-31T02:42:52.149Z,11.2
2022-10-31T02:44:00.687Z,11.6
2022-10-31T02:45:09.049Z,11.6
2022-10-31T02:46:17.353Z,11.6
2022-10-31T02:47:25.897Z,10.5
2022-10-31T02:48:34.228Z,10.5
2022-10-31T02:49:42.578Z,10.5
2022-10-31T02:50:51.113Z,10.3
2022-10-31T02:51:59.450Z,10.3
2022-10-31T02:53:07.781Z,10.3
2022-10-31T02:54:16.322Z,7.5
2022-10-31T02:55:24.672Z,7.5
2022-10-31T02:56:33.004Z,7.5
2022-10-31T02:57:41.546Z,10.3
2022-10-31T02:58:49.906Z,10.3
2022-10-31T02:59:58.241Z,10.3
2022-10-31T03:01:06.907Z,9.5
2022-10-31T03:02:15.214Z,9.5
2022-10-31T03:03:23.470Z,9.5
2022-10-31T03:04:32.018Z,9.2
2022-10-31T03:05:40.384Z,9.2
2022-10-31T03:06:48.725Z,9.2
2022-10-31T03:07:57.279Z,10
2022-10-31T03:09:05.609Z,10
2022-10-31T03:10:13.953Z,10
2022-10-31T03:11:22.494Z,11.1
2022-10-31T03:12:30.844Z,11.1
2022-10-31T03:13:39.181Z,11.1
2022-10-31T03:14:47.753Z,7.7
2022-10-31T03:15:56.090Z,7.7
2022-10-31T03:17:04.457Z,7.7
2022-10-31T03:18:12.968Z,8.8
2022-10-31T03:19:21.305Z,8.8
2022-10-31T03:20:29.650Z,8.8
2022-10-31T03:21:38.203Z,10.2
2022-10-31T03:22:46.522Z,10.2
2022-10-31T03:23:54.853Z,10.2
2022-10-31T03:25:03.409Z,11
2022-10-31T03:26:11.761Z,11
2022-10-31T03:27:20.117Z,11
2022-10-31T03:28:28.640Z,5.8
2022-10-31T03:29:36.989Z,5.8
2022-10-31T03:30:45.347Z,5.8
2022-10-31T03:31:53.886Z,6.8
2022-10-31T03:33:02.516Z,6.8
2022-10-31T03:34:10.546Z,6.8
2022-10-31T03:35:19.092Z,6.4
2022-10-31T03:36:27.442Z,6.4
2022-10-31T03:37:35.783Z,6.4
2022-10-31T03:38:44.324Z,11.6
2022-10-31T03:39:52.661Z,11.6
2022-10-31T03:41:00.985Z,11.6
2022-10-31T03:42:09.538Z,5.8
2022-10-31T03:43:17.936Z,5.8
2022-10-31T03:44:26.221Z,5.8
2022-10-31T03:45:34.758Z,6.9
2022-10-31T03:46:43.090Z,6.9
2022-10-31T03:47:51.427Z,6.9
2022-10-31T03:49:00.003Z,7.3
2022-10-31T03:50:08.319Z,7.3
2022-10-31T03:51:16.653Z,7.3
2022-10-31T03:52:25.189Z,7.2
2022-10-31T03:53:33.536Z,7.2
2022-10-31T03:54:41.873Z,7.2
2022-10-31T03:55:50.414Z,8.8
2022-10-31T03:56:58.759Z,8.8
2022-10-31T03:58:07.167Z,8.8
2022-10-31T03:59:15.649Z,8.4
2022-10-31T04:00:23.994Z,8.4
2022-10-31T04:01:32.513Z,8.4
2022-10-31T04:02:41.060Z,8.4
2022-10-31T04:03:49.204Z,8.4
2022-10-31T04:04:57.572Z,8.4
2022-10-31T04:06:06.083Z,10
2022-10-31T04:07:14.411Z,10
2022-10-31T04:08:22.759Z,10
2022-10-31T04:09:31.294Z,8.6
2022-10-31T04:10:39.626Z,8.6
2022-10-31T04:11:47.964Z,8.6
2022-10-31T04:12:56.695Z,4.8
2022-10-31T04:14:04.838Z,4.8
2022-10-31T04:15:13.162Z,4.8
2022-10-31T04:16:21.702Z,5.4
2022-10-31T04:17:30.048Z,5.4
2022-10-31T04:18:38.398Z,5.4
2022-10-31T04:19:46.942Z,6.5
2022-10-31T04:20:55.314Z,6.5
2022-10-31T04:22:03.596Z,6.5
2022-10-31T04:23:14.576Z,7
2022-10-31T04:24:20.469Z,7
2022-10-31T04:25:28.797Z,7
2022-10-31T04:26:37.341Z,8
2022-10-31T04:27:45.669Z,8
2022-10-31T04:28:54.011Z,8
2022-10-31T04:30:02.558Z,10.3
2022-10-31T04:31:10.884Z,10.3
2022-10-31T04:32:19.217Z,10.3
2022-10-31T04:33:27.761Z,8.6
2022-10-31T04:34:36.100Z,8.6
2022-10-31T04:35:44.433Z,8.6
2022-10-31T04:36:53.005Z,8
2022-10-31T04:38:01.323Z,8
2022-10-31T04:39:09.650Z,8
2022-10-31T04:40:18.203Z,8.7
2022-10-31T04:41:26.548Z,8.7
2022-10-31T04:42:34.881Z,8.7
2022-10-31T04:43:43.432Z,10.5
2022-10-31T04:44:51.760Z,10.5
2022-10-31T04:46:00.115Z,10.5
2022-10-31T04:47:08.644Z,8.2
2022-10-31T04:48:16.979Z,8.2
2022-10-31T04:49:25.304Z,8.2
2022-10-31T04:50:33.851Z,8.7
2022-10-31T04:51:42.174Z,8.7
2022-10-31T04:52:50.544Z,8.7
2022-10-31T04:53:59.057Z,7.8
2022-10-31T04:55:07.395Z,7.8
2022-10-31T04:56:15.721Z,7.8
2022-10-31T04:57:24.290Z,7.2
2022-10-31T04:58:32.612Z,7.2
2022-10-31T04:59:40.953Z,7.2
2022-10-31T05:00:49.520Z,7.5
2022-10-31T05:01:57.948Z,7.5
2022-10-31T05:03:06.167Z,7.5
2022-10-31T05:04:14.721Z,10.6
2022-10-31T05:05:23.045Z,10.6
2022-10-31T05:06:31.378Z,10.6
2022-10-31T05:07:39.925Z,7.1
2022-10-31T05:08:48.311Z,7.1
2022-10-31T05:09:56.618Z,7.1
2022-10-31T05:11:05.179Z,9.4
2022-10-31T05:12:13.516Z,9.4
2022-10-31T05:14:30.399Z,8.9
2022-10-31T05:15:38.744Z,8.9
2022-10-31T05:16:47.068Z,8.9
2022-10-31T05:17:55.614Z,9.5
2022-10-31T05:19:03.950Z,9.5
2022-10-31T05:20:12.727Z,9.5
2022-10-31T05:21:21.265Z,7
2022-10-31T05:22:29.615Z,7
2022-10-31T05:23:37.962Z,7
2022-10-31T05:24:46.522Z,12
2022-10-31T05:25:54.824Z,12
2022-10-31T05:27:03.159Z,12
2022-10-31T05:28:11.716Z,8
2022-10-31T05:29:20.046Z,8
2022-10-31T05:30:28.381Z,8
2022-10-31T05:31:36.934Z,9.8
2022-10-31T05:32:45.275Z,9.8
2022-10-31T05:33:53.599Z,9.8
2022-10-31T05:35:02.133Z,8.5
2022-10-31T05:36:10.466Z,8.5
2022-10-31T05:37:18.819Z,8.5
2022-10-31T05:38:27.355Z,6.7
2022-10-31T05:39:35.696Z,6.7
2022-10-31T05:40:44.123Z,6.7
2022-10-31T05:41:52.589Z,7.6
2022-10-31T05:43:01.138Z,7.6
2022-10-31T05:44:09.243Z,7.6
2022-10-31T05:45:17.783Z,7.8
2022-10-31T05:46:26.192Z,7.8
2022-10-31T05:47:34.479Z,7.8
2022-10-31T05:48:43.016Z,7.3
2022-10-31T05:49:51.350Z,7.3
2022-10-31T05:50:59.675Z,7.3
2022-10-31T05:52:08.233Z,7.5
2022-10-31T05:53:16.566Z,7.5
2022-10-31T05:54:24.894Z,7.5
2022-10-31T05:55:33.453Z,10
2022-10-31T05:56:41.809Z,10
2022-10-31T05:57:50.120Z,10
2022-10-31T05:58:58.663Z,9.1
2022-10-31T06:00:06.993Z,9.1
2022-10-31T06:01:15.437Z,9.1
2022-10-31T06:02:23.871Z,5.9
2022-10-31T06:03:32.201Z,5.9
2022-10-31T06:04:40.572Z,5.9
2022-10-31T06:05:50.573Z,7.4
2022-10-31T06:06:57.422Z,7.4
2022-10-31T06:08:05.755Z,7.4
2022-10-31T06:09:14.295Z,8.5
2022-10-31T06:10:22.629Z,8.5
2022-10-31T06:11:30.979Z,8.5
2022-10-31T06:12:39.550Z,8.7
2022-10-31T06:13:47.857Z,8.7
2022-10-31T06:14:56.194Z,8.7
2022-10-31T06:16:04.740Z,8.8
2022-10-31T06:17:13.068Z,8.8
2022-10-31T06:18:21.399Z,8.8
2022-10-31T06:19:29.964Z,7.2
2022-10-31T06:20:38.286Z,7.2
2022-10-31T06:21:46.608Z,7.2
2022-10-31T06:22:55.149Z,9.3
2022-10-31T06:24:03.489Z,9.3
2022-10-31T06:25:11.962Z,9.3
2022-10-31T06:26:20.449Z,7.7
2022-10-31T06:27:28.779Z,7.7
2022-10-31T06:28:37.147Z,7.7
2022-10-31T06:29:45.660Z,8
2022-10-31T06:30:54.001Z,8
2022-10-31T06:32:02.335Z,8
2022-10-31T06:33:10.897Z,9.7
2022-10-31T06:34:19.231Z,9.7
2022-10-31T06:35:27.564Z,9.7
2022-10-31T06:36:36.121Z,10.3
2022-10-31T06:37:45.601Z,10.3
2022-10-31T06:38:52.806Z,10.3
2022-10-31T06:40:01.330Z,10.9
2022-10-31T06:41:09.667Z,10.9
2022-10-31T06:42:17.982Z,10.9
2022-10-31T06:43:26.544Z,9.6
2022-10-31T06:44:34.888Z,9.6
2022-10-31T06:45:43.198Z,9.6
2022-10-31T06:46:51.740Z,8.9
2022-10-31T06:48:23.899Z,8.9
2022-10-31T06:49:08.401Z,8.9
2022-10-31T06:50:16.947Z,9.5
2022-10-31T06:51:25.274Z,9.5
2022-10-31T06:52:33.607Z,9.5
2022-10-31T06:53:42.149Z,15.2
2022-10-31T06:54:50.515Z,15.2
2022-10-31T06:55:58.865Z,15.2
2022-10-31T06:57:07.443Z,17.4
2022-10-31T06:58:15.768Z,17.4
2022-10-31T06:59:24.096Z,17.4
2022-10-31T07:00:32.691Z,26.6
2022-10-31T07:01:41.100Z,26.6
2022-10-31T07:02:49.311Z,26.6
2022-10-31T07:03:57.859Z,18.4
2022-10-31T07:05:06.205Z,18.4
2022-10-31T07:06:14.530Z,18.4
2022-10-31T07:07:23.084Z,17.200001
2022-10-31T07:08:31.433Z,17.200001
2022-10-31T07:09:39.774Z,17.200001
2022-10-31T07:10:48.332Z,12.3
2022-10-31T07:11:56.677Z,12.3
2022-10-31T07:13:05.023Z,12.3
2022-10-31T07:14:13.607Z,10.7
2022-10-31T07:15:21.961Z,10.7
2022-10-31T07:16:30.353Z,10.7
2022-10-31T07:17:38.877Z,12.3
2022-10-31T07:18:47.230Z,12.3
2022-10-31T07:19:55.580Z,12.3
2022-10-31T07:21:04.155Z,10.6
2022-10-31T07:22:12.526Z,10.6
2022-10-31T07:23:20.887Z,10.6
2022-10-31T07:24:29.450Z,10.5
2022-10-31T07:25:37.808Z,10.5
2022-10-31T07:26:46.205Z,10.5
2022-10-31T07:27:54.733Z,11
2022-10-31T07:29:03.073Z,11
2022-10-31T07:30:11.422Z,11
2022-10-31T07:31:20.008Z,14
2022-10-31T07:32:28.359Z,14
2022-10-31T07:33:36.710Z,14
2022-10-31T07:34:46.640Z,9.8
2022-10-31T07:35:53.580Z,9.8
2022-10-31T07:37:01.943Z,9.8
2022-10-31T07:38:10.491Z,7.9
2022-10-31T07:39:18.845Z,7.9
2022-10-31T07:40:27.275Z,7.9
2022-10-31T07:41:35.769Z,10.8
2022-10-31T07:42:44.124Z,10.8
2022-10-31T07:45:01.037Z,13.7
2022-10-31T07:46:09.389Z,13.7
2022-10-31T07:47:17.752Z,13.7
2022-10-31T07:48:26.349Z,11.4
2022-10-31T07:49:34.651Z,11.4
2022-10-31T07:50:43.012Z,11.4
2022-10-31T07:51:51.573Z,10.7
2022-10-31T07:52:59.941Z,10.7
2022-10-31T07:54:08.292Z,10.7
2022-10-31T07:55:16.859Z,11.7
2022-10-31T07:56:25.213Z,11.7
2022-10-31T07:57:34.793Z,11.7
2022-10-31T07:58:42.128Z,7.2
2022-10-31T07:59:50.478Z,7.2
2022-10-31T08:00:58.916Z,7.2
2022-10-31T08:02:07.390Z,11.8
2022-10-31T08:03:15.744Z,11.8
2022-10-31T08:04:24.126Z,11.8
2022-10-31T08:05:32.649Z,8.2
2022-10-31T08:06:41.018Z,8.2
2022-10-31T08:07:49.384Z,8.2
2022-10-31T08:08:57.954Z,9.4
2022-10-31T08:10:06.327Z,9.4
2022-10-31T08:11:14.676Z,9.4
2022-10-31T08:12:23.240Z,8.8
2022-10-31T08:13:31.594Z,8.8
2022-10-31T08:14:39.952Z,8.8
2022-10-31T08:15:48.510Z,7.3
2022-10-31T08:16:56.853Z,7.3
2022-10-31T08:18:05.214Z,7.3
2022-10-31T08:19:13.773Z,8.5
2022-10-31T08:20:22.151Z,8.5
2022-10-31T08:21:30.476Z,8.5
2022-10-31T08:22:42.929Z,8.8
2022-10-31T08:23:47.411Z,8.8
2022-10-31T08:24:55.759Z,8.8
2022-10-31T08:26:04.328Z,10.7
2022-10-31T08:27:12.650Z,10.7
2022-10-31T08:28:21.013Z,10.7
2022-10-31T08:29:29.559Z,7.9
2022-10-31T08:30:37.923Z,7.9
2022-10-31T08:31:46.237Z,7.9
2022-10-31T08:32:54.813Z,9.2
2022-10-31T08:34:03.167Z,9.2
2022-10-31T08:35:11.520Z,9.2
2022-10-31T08:36:20.136Z,9.3
2022-10-31T08:37:28.446Z,9.3
2022-10-31T08:38:36.804Z,9.3
2022-10-31T08:39:45.356Z,10.3
2022-10-31T08:40:53.708Z,10.3
2022-10-31T08:42:02.061Z,10.3
2022-10-31T08:43:10.653Z,9.1
2022-10-31T08:44:19.021Z,9.1
2022-10-31T08:45:27.372Z,9.1
2022-10-31T08:46:35.921Z,10.6
2022-10-31T08:47:44.283Z,10.6
2022-10-31T08:48:52.634Z,10.6
2022-10-31T08:50:01.184Z,9.3
2022-10-31T08:51:09.532Z,9.3
2022-10-31T08:52:17.904Z,9.3
2022-10-31T08:53:26.457Z,12.7
2022-10-31T08:54:34.797Z,12.7
2022-10-31T08:55:43.127Z,12.7
2022-10-31T08:56:51.684Z,8.6
2022-10-31T08:58:00.420Z,8.6
2022-10-31T08:59:08.382Z,8.6
2022-10-31T09:00:16.920Z,9.3
2022-10-31T09:01:25.381Z,9.3
2022-10-31T09:02:33.600Z,9.3
2022-10-31T09:03:42.160Z,11.9
2022-10-31T09:04:50.496Z,11.9
2022-10-31T09:05:58.891Z,11.9
2022-10-31T09:07:22.746Z,11.4
2022-10-31T09:08:16.856Z,11.4
2022-10-31T09:09:24.070Z,11.4
2022-10-31T09:10:32.609Z,9.1
2022-10-31T09:11:40.951Z,9.1
2022-10-31T09:12:49.290Z,9.1
2022-10-31T09:13:57.850Z,12.2
2022-10-31T09:15:06.193Z,12.2
2022-10-31T09:16:14.538Z,12.2
2022-10-31T09:17:23.092Z,10.2
2022-10-31T09:18:31.426Z,10.2
2022-10-31T09:19:39.754Z,10.2
2022-10-31T09:20:48.312Z,10
2022-10-31T09:21:56.659Z,10
2022-10-31T09:23:04.987Z,10
2022-10-31T09:24:13.556Z,10.5
2022-10-31T09:25:21.886Z,10.5
2022-10-31T09:26:30.230Z,10.5
2022-10-31T09:27:38.786Z,8.7
2022-10-31T09:28:47.140Z,8.7
2022-10-31T09:29:55.497Z,8.7
2022-10-31T09:31:04.047Z,11.6
2022-10-31T09:32:12.392Z,11.6
2022-10-31T09:33:20.757Z,11.6
2022-10-31T09:34:29.294Z,9.9
2022-10-31T09:35:37.618Z,9.9
2022-10-31T09:36:45.971Z,9.9
2022-10-31T09:37:54.529Z,9.1
2022-10-31T09:39:02.858Z,9.1
2022-10-31T09:40:11.220Z,9.1
2022-10-31T09:41:19.736Z,11
2022-10-31T09:42:28.084Z,11
2022-10-31T09:43:36.429Z,11
2022-10-31T09:44:44.965Z,9.1
2022-10-31T09:45:53.315Z,9.1
2022-10-31T09:47:01.675Z,9.1
2022-10-31T09:48:10.226Z,9.2
2022-10-31T09:49:18.596Z,9.2
2022-10-31T09:50:26.896Z,9.2
2022-10-31T09:51:35.467Z,12.5
2022-10-31T09:52:43.810Z,12.5
2022-10-31T09:53:52.143Z,12.5
2022-10-31T09:55:00.691Z,9.7
2022-10-31T09:56:09.065Z,9.7
2022-10-31T09:57:17.389Z,9.7
2022-10-31T09:58:25.929Z,12.5
2022-10-31T09:59:34.271Z,12.5
2022-10-31T10:00:42.735Z,12.5
2022-10-31T10:01:51.262Z,11.6
2022-10-31T10:02:59.747Z,11.6
2022-10-31T10:04:07.834Z,11.6
2022-10-31T10:05:16.373Z,13.5
2022-10-31T10:06:24.743Z,13.5
2022-10-31T10:07:33.083Z,13.5
2022-10-31T10:08:41.641Z,10.4
2022-10-31T10:09:49.987Z,10.4
2022-10-31T10:10:58.343Z,10.4
2022-10-31T10:12:06.948Z,9.1
2022-10-31T10:13:15.240Z,9.1
2022-10-31T10:14:23.608Z,9.1
2022-10-31T10:15:32.153Z,9.9
2022-10-31T10:16:40.490Z,9.9
2022-10-31T10:17:48.875Z,9.9
2022-10-31T10:18:57.381Z,13.8
2022-10-31T10:20:05.727Z,13.8
2022-10-31T10:21:14.105Z,13.8
2022-10-31T10:22:22.654Z,10.6
2022-10-31T10:23:30.989Z,10.6
2022-10-31T10:24:39.335Z,10.6
2022-10-31T10:25:47.890Z,9.8
2022-10-31T10:26:56.226Z,9.8
2022-10-31T10:28:04.789Z,9.8
2022-10-31T10:29:13.152Z,10.1
2022-10-31T10:30:21.500Z,10.1
2022-10-31T10:31:29.861Z,10.1
2022-10-31T10:32:38.408Z,13.5
2022-10-31T10:33:46.748Z,13.5
2022-10-31T10:34:55.098Z,13.5
2022-10-31T10:36:03.661Z,12.2
2022-10-31T10:37:11.992Z,12.2
2022-10-31T10:38:20.336Z,12.2
2022-10-31T10:39:28.892Z,12.4
2022-10-31T10:40:37.242Z,12.4
2022-10-31T10:41:45.582Z,12.4
2022-10-31T10:42:54.117Z,11.5
2022-10-31T10:44:02.484Z,11.5
2022-10-31T10:45:10.806Z,11.5
2022-10-31T10:46:19.359Z,12.7
2022-10-31T10:47:27.710Z,12.7
2022-10-31T10:48:36.058Z,12.7
2022-10-31T10:49:44.598Z,12.3
2022-10-31T10:50:52.959Z,12.3
2022-10-31T10:52:19.158Z,12.3
2022-10-31T10:53:09.820Z,11.4
2022-10-31T10:54:18.151Z,11.4
2022-10-31T10:55:26.515Z,11.4
2022-10-31T10:56:35.062Z,11.7
2022-10-31T10:57:43.393Z,11.7
2022-10-31T10:58:51.728Z,11.7
2022-10-31T11:00:00.309Z,13.9
2022-10-31T11:01:08.781Z,13.9
2022-10-31T11:02:16.981Z,13.9
2022-10-31T11:03:25.531Z,12.9
2022-10-31T11:04:33.861Z,12.9
2022-10-31T11:05:42.219Z,12.9
2022-10-31T11:06:50.768Z,10.1
2022-10-31T11:07:59.099Z,10.1
2022-10-31T11:09:07.437Z,10.1
2022-10-31T11:10:16.006Z,10
2022-10-31T11:11:24.338Z,10
2022-10-31T11:12:32.670Z,10
2022-10-31T11:13:41.224Z,11.1
2022-10-31T11:14:49.558Z,11.1
2022-10-31T11:15:57.948Z,11.1
2022-10-31T11:17:06.460Z,9.4
2022-10-31T11:18:14.831Z,9.4
2022-10-31T11:19:23.133Z,9.4
2022-10-31T11:20:31.696Z,11.1
2022-10-31T11:21:40.041Z,11.1
2022-10-31T11:22:48.383Z,11.1
2022-10-31T11:23:56.928Z,10.4
2022-10-31T11:25:05.279Z,10.4
2022-10-31T11:26:13.632Z,10.4
2022-10-31T11:27:22.194Z,12.5
2022-10-31T11:28:30.532Z,12.5
2022-10-31T11:29:38.880Z,12.5
2022-10-31T11:30:47.436Z,11
2022-10-31T11:31:55.796Z,11
2022-10-31T11:33:04.218Z,11
2022-10-31T11:34:12.669Z,9.7
2022-10-31T11:35:21.030Z,9.7
2022-10-31T11:36:29.376Z,9.7
2022-10-31T11:37:37.950Z,7.5
2022-10-31T11:38:46.326Z,7.5
2022-10-31T11:39:54.663Z,7.5
2022-10-31T11:41:03.226Z,12.5
2022-10-31T11:42:11.576Z,12.5
2022-10-31T11:43:19.952Z,12.5
2022-10-31T11:44:28.519Z,9.3
2022-10-31T11:45:36.881Z,9.3
2022-10-31T11:46:45.232Z,9.3
2022-10-31T11:47:56.794Z,10.1
2022-10-31T11:49:02.156Z,10.1
2022-10-31T11:50:10.525Z,10.1
2022-10-31T11:51:19.076Z,10.1
2022-10-31T11:52:27.428Z,10.1
2022-10-31T11:53:35.780Z,10.1
2022-10-31T11:54:44.341Z,11.4
2022-10-31T11:55:52.694Z,11.4
2022-10-31T11:57:01.057Z,11.4
2022-10-31T11:58:09.613Z,10.2
2022-10-31T11:59:17.961Z,10.2
2022-10-31T12:01:35.046Z,10.9
2022-10-31T12:02:43.334Z,10.9
2022-10-31T12:03:51.637Z,10.9
2022-10-31T12:05:00.198Z,9.5
2022-10-31T12:06:08.527Z,9.5
2022-10-31T12:07:16.890Z,9.5
2022-10-31T12:08:25.451Z,8
2022-10-31T12:09:33.812Z,8
2022-10-31T12:10:42.161Z,8
2022-10-31T12:11:50.728Z,10.3
2022-10-31T12:12:59.438Z,10.3
2022-10-31T12:14:07.426Z,10.3
2022-10-31T12:15:15.988Z,11.6
2022-10-31T12:16:24.340Z,11.6
2022-10-31T12:17:32.684Z,11.6
2022-10-31T12:18:41.252Z,7.3
2022-10-31T12:19:51.198Z,7.3
2022-10-31T12:20:58.138Z,7.3
2022-10-31T12:22:06.642Z,9.1
2022-10-31T12:23:15.002Z,9.1
2022-10-31T12:24:23.361Z,9.1
2022-10-31T12:25:31.933Z,7.7
2022-10-31T12:26:40.273Z,7.7
2022-10-31T12:27:48.627Z,7.7
2022-10-31T12:28:57.206Z,7.7
2022-10-31T12:30:05.591Z,7.7
2022-10-31T12:31:13.965Z,7.7
2022-10-31T12:32:22.520Z,8.3
2022-10-31T12:33:30.876Z,8.3
2022-10-31T12:34:39.236Z,8.3
2022-10-31T12:35:47.820Z,10.2
2022-10-31T12:36:56.136Z,10.2
2022-10-31T12:38:04.502Z,10.2
2022-10-31T12:39:13.059Z,9.9
2022-10-31T12:40:21.425Z,9.9
2022-10-31T12:41:29.779Z,9.9
2022-10-31T12:42:38.371Z,10.2
2022-10-31T12:43:46.686Z,10.2
2022-10-31T12:44:55.067Z,10.2
2022-10-31T12:46:03.607Z,7.5
2022-10-31T12:47:11.949Z,7.5
2022-10-31T12:48:20.296Z,7.5
2022-10-31T12:49:28.842Z,9.9
2022-10-31T12:50:37.205Z,9.9
2022-10-31T12:51:45.590Z,9.9
2022-10-31T12:52:54.119Z,13.2
2022-10-31T12:54:02.466Z,13.2
2022-10-31T12:55:10.814Z,13.2
2022-10-31T12:56:19.379Z,7.8
2022-10-31T12:57:27.729Z,7.8
2022-10-31T12:58:36.079Z,7.8
2022-10-31T12:59:44.653Z,10
2022-10-31T13:00:53.054Z,10
2022-10-31T13:02:01.475Z,10
2022-10-31T13:03:09.913Z,13.2
2022-10-31T13:04:18.265Z,13.2
2022-10-31T13:05:26.610Z,13.2
2022-10-31T13:06:35.170Z,10.1
2022-10-31T13:07:43.574Z,10.1
2022-10-31T13:08:51.907Z,10.1
2022-10-31T13:10:00.484Z,8.5
2022-10-31T13:11:08.822Z,8.5
2022-10-31T13:12:17.197Z,8.5
2022-10-31T13:13:25.733Z,11.1
2022-10-31T13:14:34.103Z,11.1
2022-10-31T13:15:42.448Z,11.1
2022-10-31T13:16:51.008Z,9.5
2022-10-31T13:17:59.360Z,9.5
2022-10-31T13:19:07.707Z,9.5
2022-10-31T13:20:16.272Z,9.5
2022-10-31T13:21:24.613Z,9.5
2022-10-31T13:22:32.973Z,9.5
2022-10-31T13:23:57.045Z,8
2022-10-31T13:24:49.911Z,8
2022-10-31T13:25:58.252Z,8
2022-10-31T13:27:06.804Z,10.7
2022-10-31T13:28:15.146Z,10.7
2022-10-31T13:29:23.869Z,10.7
2022-10-31T13:30:32.497Z,7.6
2022-10-31T13:31:40.866Z,7.6
2022-10-31T13:32:49.215Z,7.6
2022-10-31T13:33:57.765Z,8.3
2022-10-31T13:35:08.503Z,8.3
2022-10-31T13:36:16.851Z,8.3
2022-10-31T13:37:25.412Z,10.4
2022-10-31T13:38:41.451Z,10.4
2022-10-31T13:39:50.711Z,10.4
2022-10-31T13:40:59.240Z,7.7
2022-10-31T13:42:07.593Z,7.7
2022-10-31T13:43:15.963Z,7.7
2022-10-31T13:44:24.518Z,8.4
2022-10-31T13:45:32.902Z,8.4
2022-10-31T13:47:49.931Z,9.7
2022-10-31T13:48:58.294Z,9.7
2022-10-31T13:50:06.667Z,9.7
2022-10-31T13:51:15.221Z,10.7
2022-10-31T13:52:23.572Z,10.7
2022-10-31T13:53:31.919Z,10.7
2022-10-31T13:54:40.478Z,8.7
2022-10-31T13:55:48.861Z,8.7
2022-10-31T13:56:57.187Z,8.7
2022-10-31T13:58:05.750Z,9.6
2022-10-31T13:59:14.110Z,9.6
2022-10-31T14:00:22.452Z,9.6
2022-10-31T14:01:31.195Z,8.2
2022-10-31T14:02:39.373Z,8.2
2022-10-31T14:04:11.422Z,8.2
2022-10-31T14:04:56.317Z,10.9
2022-10-31T14:06:04.659Z,10.9
2022-10-31T14:07:13.010Z,10.9
2022-10-31T14:08:21.576Z,9.8
2022-10-31T14:09:29.915Z,9.8
2022-10-31T14:10:38.326Z,9.8
2022-10-31T14:11:46.862Z,11.8
2022-10-31T14:12:55.191Z,11.8
2022-10-31T14:14:03.531Z,11.8
2022-10-31T14:15:12.093Z,8.8
2022-10-31T14:16:20.453Z,8.8
2022-10-31T14:17:28.785Z,8.8
2022-10-31T14:18:37.343Z,11.9
2022-10-31T14:19:45.696Z,11.9
2022-10-31T14:20:54.054Z,11.9
2022-10-31T14:22:02.627Z,11
2022-10-31T14:23:10.988Z,11
2022-10-31T14:24:19.345Z,11
2022-10-31T14:25:27.905Z,10.8
2022-10-31T14:26:36.264Z,10.8
2022-10-31T14:27:44.634Z,10.8
2022-10-31T14:28:53.170Z,10.3
2022-10-31T14:30:01.533Z,10.3
2022-10-31T15:04:18.037Z,0
2022-10-31T15:05:06.150Z,0
2022-10-31T15:06:14.529Z,0
2022-10-31T15:07:24.794Z,9.1
2022-10-31T15:08:31.507Z,9.1
2022-10-31T15:09:39.872Z,9.1
2022-10-31T15:10:48.444Z,7.6
2022-10-31T15:11:56.824Z,7.6
2022-10-31T15:13:05.165Z,7.6
2022-10-31T15:14:13.758Z,9.5
2022-10-31T15:15:22.055Z,9.5
2022-10-31T15:17:39.054Z,13.4
2022-10-31T15:18:47.327Z,13.4
2022-10-31T15:19:55.724Z,13.4
2022-10-31T15:21:07.331Z,9.4
2022-10-31T15:22:12.627Z,9.4
2022-10-31T15:23:20.994Z,9.4
2022-10-31T15:24:29.557Z,10.3
2022-10-31T15:25:37.895Z,10.3
2022-10-31T15:26:46.243Z,10.3
2022-10-31T15:27:54.801Z,8.4
2022-10-31T15:29:03.167Z,8.4
2022-10-31T15:30:11.529Z,8.4
2022-10-31T15:31:20.077Z,8.1
2022-10-31T15:32:28.424Z,8.1
2022-10-31T15:33:39.242Z,8.1
2022-10-31T15:34:45.336Z,11.6
2022-10-31T15:35:53.715Z,11.6
2022-10-31T15:37:02.030Z,11.6
2022-10-31T15:38:10.604Z,9.9
2022-10-31T15:39:18.989Z,9.9
2022-10-31T15:40:27.335Z,9.9
2022-10-31T15:41:35.976Z,9.3
2022-10-31T15:42:44.337Z,9.3
2022-10-31T15:43:52.660Z,9.3
2022-10-31T15:45:01.211Z,12
2022-10-31T15:46:09.546Z,12
2022-10-31T15:47:17.892Z,12
2022-10-31T15:48:26.470Z,10.7
2022-10-31T15:49:34.821Z,10.7
2022-10-31T15:50:43.170Z,10.7
2022-10-31T15:51:54.358Z,11.4
2022-10-31T15:53:00.303Z,11.4
2022-10-31T15:54:08.438Z,11.4
2022-10-31T15:55:16.968Z,12.2
2022-10-31T15:56:25.305Z,12.2
2022-10-31T15:57:33.649Z,12.2
2022-10-31T15:58:42.217Z,14.6
2022-10-31T15:59:50.615Z,14.6
2022-10-31T16:00:58.978Z,14.6
2022-10-31T16:02:07.572Z,19.299999
2022-10-31T16:03:15.855Z,19.299999
2022-10-31T16:04:24.197Z,19.299999
2022-10-31T16:05:32.739Z,17.5
2022-10-31T16:06:41.075Z,17.5
2022-10-31T16:07:49.445Z,17.5
2022-10-31T16:08:57.974Z,15